createdAt,value
2016-06-23T00:00:04.077Z,17.58
2016-06-23T00:01:04.094Z,17.55
2016-06-23T00:02:03.479Z,17.49
2016-06-23T00:03:03.458Z,17.48
2016-06-23T00:04:02.859Z,17.49
2016-06-23T00:05:04.073Z,17.51
2016-06-23T00:06:03.458Z,17.38
2016-06-23T00:07:02.849Z,17.38
2016-06-23T00:08:03.476Z,17.37
2016-06-23T00:09:04.069Z,17.4
2016-06-23T00:10:02.849Z,17.36
2016-06-23T00:11:03.464Z,17.38
2016-06-23T00:12:03.454Z,17.41
2016-06-23T00:13:02.855Z,17.36
2016-06-23T00:14:03.476Z,17.36
2016-06-23T00:15:03.455Z,17.37
2016-06-23T00:16:03.672Z,17.34
2016-06-23T00:17:03.452Z,17.34
2016-06-23T00:18:03.480Z,17.36
2016-06-23T00:19:03.460Z,17.34
2016-06-23T00:20:03.468Z,17.33
2016-06-23T00:21:04.105Z,17.41
2016-06-23T00:22:03.455Z,17.26
2016-06-23T00:23:03.645Z,17.31
2016-06-23T00:24:06.008Z,17.36
2016-06-23T00:25:05.072Z,17.3
2016-06-23T00:26:03.555Z,17.22
2016-06-23T00:27:03.923Z,17.26
2016-06-23T00:28:04.247Z,17.33
2016-06-23T00:29:03.467Z,17.36
2016-06-23T00:30:04.279Z,17.31
2016-06-23T00:31:03.025Z,17.3
2016-06-23T00:32:03.462Z,17.3
2016-06-23T00:33:04.707Z,17.25
2016-06-23T00:34:04.045Z,17.33
2016-06-23T00:35:04.607Z,17.25
2016-06-23T00:36:03.752Z,17.25
2016-06-23T00:37:03.447Z,17.21
2016-06-23T00:38:02.845Z,17.22
2016-06-23T00:39:04.059Z,17.12
2016-06-23T00:40:02.831Z,17.22
2016-06-23T00:41:03.444Z,17.19
2016-06-23T00:42:02.831Z,17.19
2016-06-23T00:43:02.831Z,17.21
2016-06-23T00:44:04.054Z,17.18
2016-06-23T00:45:02.857Z,17.11
2016-06-23T00:46:02.834Z,17.07
2016-06-23T00:47:02.833Z,17.15
2016-06-23T00:48:02.866Z,17.15
2016-06-23T00:49:03.436Z,17.14
2016-06-23T00:50:02.825Z,17.06
2016-06-23T00:51:03.450Z,17.12
2016-06-23T00:52:04.060Z,17.12
2016-06-23T00:53:04.058Z,17.12
2016-06-23T00:54:04.045Z,17.12
2016-06-23T00:55:03.439Z,17.25
2016-06-23T00:56:04.085Z,17.12
2016-06-23T00:57:03.445Z,17.18
2016-06-23T00:58:03.433Z,17.08
2016-06-23T00:59:02.819Z,17.12
2016-06-23T01:00:04.059Z,17.28
2016-06-23T01:01:04.046Z,17.11
2016-06-23T01:02:02.844Z,17.14
2016-06-23T01:03:02.829Z,17.14
2016-06-23T01:04:03.429Z,17.11
2016-06-23T01:05:04.037Z,17.22
2016-06-23T01:06:03.433Z,17.18
2016-06-23T01:07:03.431Z,17.14
2016-06-23T01:08:04.162Z,17.22
2016-06-23T01:09:04.038Z,17.14
2016-06-23T01:10:04.048Z,17.07
2016-06-23T01:11:04.054Z,17.18
2016-06-23T01:12:04.267Z,17.04
2016-06-23T01:13:03.057Z,17.07
2016-06-23T01:14:03.432Z,17.07
2016-06-23T01:15:03.428Z,17.07
2016-06-23T01:16:04.130Z,17.12
2016-06-23T01:17:03.424Z,17.12
2016-06-23T01:18:02.822Z,17.18
2016-06-23T01:19:03.416Z,17.11
2016-06-23T01:20:02.817Z,17.04
2016-06-23T01:21:02.819Z,17.03
2016-06-23T01:22:03.414Z,17.06
2016-06-23T01:23:03.426Z,17.06
2016-06-23T01:24:04.034Z,17.12
2016-06-23T01:25:02.812Z,17.06
2016-06-23T01:26:04.027Z,17.11
2016-06-23T01:27:03.411Z,17
2016-06-23T01:28:03.406Z,17.03
2016-06-23T01:29:03.416Z,17.01
2016-06-23T01:30:03.429Z,17.03
2016-06-23T01:31:03.407Z,17.01
2016-06-23T01:32:04.273Z,16.98
2016-06-23T01:33:02.804Z,16.98
2016-06-23T01:34:03.422Z,17.03
2016-06-23T01:35:02.806Z,17.01
2016-06-23T01:36:03.419Z,16.97
2016-06-23T01:37:03.409Z,16.97
2016-06-23T01:38:03.405Z,16.94
2016-06-23T01:39:04.018Z,16.97
2016-06-23T01:40:03.408Z,16.97
2016-06-23T01:41:05.067Z,16.93
2016-06-23T01:42:05.543Z,16.97
2016-06-23T01:43:18.125Z,16.91
2016-06-23T01:44:04.038Z,16.94
2016-06-23T01:45:05.342Z,16.96
2016-06-23T01:46:04.563Z,16.86
2016-06-23T01:47:03.975Z,16.89
2016-06-23T01:48:03.878Z,16.89
2016-06-23T01:49:03.397Z,16.98
2016-06-23T01:50:02.789Z,16.85
2016-06-23T01:51:06.012Z,16.86
2016-06-23T01:52:05.682Z,16.89
2016-06-23T01:53:04.977Z,16.86
2016-06-23T01:54:04.316Z,16.78
2016-06-23T01:55:02.786Z,16.81
2016-06-23T01:56:03.887Z,16.88
2016-06-23T01:57:03.727Z,16.83
2016-06-23T01:58:03.994Z,16.83
2016-06-23T01:59:02.793Z,16.86
2016-06-23T02:00:02.778Z,16.81
2016-06-23T02:01:03.383Z,16.83
2016-06-23T02:02:02.783Z,16.89
2016-06-23T02:03:04.014Z,16.85
2016-06-23T02:04:02.783Z,16.88
2016-06-23T02:05:02.784Z,16.75
2016-06-23T02:06:03.396Z,16.83
2016-06-23T02:07:03.381Z,16.83
2016-06-23T02:08:04.000Z,16.81
2016-06-23T02:09:02.781Z,16.75
2016-06-23T02:10:03.391Z,16.71
2016-06-23T02:11:02.780Z,16.73
2016-06-23T02:12:03.389Z,16.79
2016-06-23T02:13:02.775Z,16.71
2016-06-23T02:14:03.393Z,16.73
2016-06-23T02:15:03.985Z,16.71
2016-06-23T02:16:03.376Z,16.73
2016-06-23T02:17:03.368Z,16.64
2016-06-23T02:18:02.773Z,16.68
2016-06-23T02:19:03.984Z,16.61
2016-06-23T02:20:03.995Z,16.71
2016-06-23T02:21:03.995Z,16.66
2016-06-23T02:22:02.762Z,16.68
2016-06-23T02:23:03.374Z,16.68
2016-06-23T02:24:02.757Z,16.68
2016-06-23T02:25:03.383Z,16.66
2016-06-23T02:26:03.990Z,16.58
2016-06-23T02:27:03.988Z,16.66
2016-06-23T02:28:03.357Z,16.68
2016-06-23T02:29:03.371Z,16.7
2016-06-23T02:30:03.409Z,16.71
2016-06-23T02:31:03.363Z,16.67
2016-06-23T02:32:03.361Z,16.68
2016-06-23T02:33:02.758Z,16.61
2016-06-23T02:34:02.754Z,16.57
2016-06-23T02:35:03.383Z,16.6
2016-06-23T02:36:03.363Z,16.58
2016-06-23T02:37:03.357Z,16.61
2016-06-23T02:38:03.354Z,16.58
2016-06-23T02:39:02.761Z,16.57
2016-06-23T02:40:03.344Z,16.6
2016-06-23T02:41:03.342Z,16.56
2016-06-23T02:42:03.378Z,16.6
2016-06-23T02:43:03.352Z,16.58
2016-06-23T02:44:03.356Z,16.56
2016-06-23T02:45:02.779Z,16.57
2016-06-23T02:46:03.946Z,16.66
2016-06-23T02:47:03.965Z,16.58
2016-06-23T02:48:03.956Z,16.58
2016-06-23T02:49:03.945Z,16.5
2016-06-23T02:50:02.750Z,16.6
2016-06-23T02:51:03.343Z,16.58
2016-06-23T02:52:03.946Z,16.67
2016-06-23T02:53:02.734Z,16.56
2016-06-23T02:54:03.958Z,16.61
2016-06-23T02:55:03.947Z,16.61
2016-06-23T02:56:03.335Z,16.66
2016-06-23T02:57:03.369Z,16.64
2016-06-23T02:58:02.736Z,16.66
2016-06-23T02:59:03.950Z,16.71
2016-06-23T03:00:04.904Z,16.71
2016-06-23T03:01:05.262Z,16.73
2016-06-23T03:02:04.068Z,16.64
2016-06-23T03:03:04.926Z,16.73
2016-06-23T03:04:03.327Z,16.7
2016-06-23T03:05:04.025Z,16.7
2016-06-23T03:06:03.383Z,16.73
2016-06-23T03:07:03.371Z,16.75
2016-06-23T03:08:03.947Z,16.76
2016-06-23T03:09:03.180Z,16.71
2016-06-23T03:10:04.172Z,16.81
2016-06-23T03:11:03.332Z,16.75
2016-06-23T03:12:05.008Z,16.79
2016-06-23T03:13:03.938Z,16.73
2016-06-23T03:14:03.323Z,16.83
2016-06-23T03:15:03.318Z,16.81
2016-06-23T03:16:04.028Z,16.79
2016-06-23T03:17:03.330Z,16.78
2016-06-23T03:18:03.937Z,16.88
2016-06-23T03:19:03.932Z,16.88
2016-06-23T03:20:02.713Z,17
2016-06-23T03:21:03.319Z,17
2016-06-23T03:22:02.704Z,17.04
2016-06-23T03:23:03.313Z,17.07
2016-06-23T03:24:03.917Z,17.31
2016-06-23T03:25:03.325Z,17.41
2016-06-23T03:26:03.320Z,17.59
2016-06-23T03:27:03.314Z,17.82
2016-06-23T03:28:03.316Z,17.9
2016-06-23T03:29:02.707Z,18.21
2016-06-23T03:30:03.308Z,18.47
2016-06-23T03:31:02.708Z,18.6
2016-06-23T03:32:02.710Z,18.87
2016-06-23T03:33:03.326Z,18.98
2016-06-23T03:34:03.937Z,19.31
2016-06-23T03:35:03.316Z,19.55
2016-06-23T03:36:02.702Z,19.84
2016-06-23T03:37:03.944Z,20.05
2016-06-23T03:38:03.939Z,20.23
2016-06-23T03:39:02.707Z,20.5
2016-06-23T03:40:02.711Z,20.69
2016-06-23T03:41:03.934Z,20.94
2016-06-23T03:42:02.710Z,21.17
2016-06-23T03:43:03.321Z,21.43
2016-06-23T03:44:02.712Z,21.68
2016-06-23T03:45:03.320Z,21.99
2016-06-23T03:46:03.964Z,22.22
2016-06-23T03:47:03.336Z,22.4
2016-06-23T03:48:03.330Z,22.64
2016-06-23T03:49:03.971Z,22.95
2016-06-23T03:50:02.738Z,23.16
2016-06-23T03:51:03.345Z,23.5
2016-06-23T03:52:03.373Z,23.83
2016-06-23T03:53:03.374Z,24.05
2016-06-23T03:54:03.348Z,24.28
2016-06-23T03:55:03.371Z,24.5
2016-06-23T03:56:03.382Z,24.84
2016-06-23T03:57:03.370Z,25.02
2016-06-23T03:58:03.987Z,25.33
2016-06-23T03:59:04.011Z,25.55
2016-06-23T04:00:03.382Z,25.82
2016-06-23T04:01:03.392Z,26.1
2016-06-23T04:02:04.003Z,26.36
2016-06-23T04:03:03.404Z,26.62
2016-06-23T04:04:02.811Z,26.8
2016-06-23T04:05:02.813Z,27.02
2016-06-23T04:06:02.809Z,27.24
2016-06-23T04:07:04.039Z,27.51
2016-06-23T04:08:02.842Z,27.72
2016-06-23T04:09:03.441Z,28
2016-06-23T04:10:03.455Z,28.17
2016-06-23T04:11:03.460Z,28.41
2016-06-23T04:12:04.084Z,28.66
2016-06-23T04:13:04.096Z,28.96
2016-06-23T04:14:02.884Z,29.16
2016-06-23T04:15:03.498Z,29.41
2016-06-23T04:16:03.509Z,29.6
2016-06-23T04:17:04.133Z,29.76
2016-06-23T04:18:05.026Z,30.02
2016-06-23T04:20:04.211Z,30.32
2016-06-23T04:21:04.169Z,30.49
2016-06-23T04:22:03.573Z,30.58
2016-06-23T04:23:18.453Z,30.86
2016-06-23T04:24:03.585Z,31.02
2016-06-23T04:25:04.199Z,31.16
2016-06-23T04:26:03.603Z,31.31
2016-06-23T04:27:03.007Z,31.36
2016-06-23T04:28:04.663Z,31.56
2016-06-23T04:29:05.107Z,31.76
2016-06-23T04:30:06.604Z,31.86
2016-06-23T04:31:03.045Z,31.92
2016-06-23T04:32:03.054Z,32.22
2016-06-23T04:33:04.643Z,32.41
2016-06-23T04:34:03.065Z,32.55
2016-06-23T04:35:03.090Z,32.77
2016-06-23T04:36:03.709Z,32.99
2016-06-23T04:37:03.115Z,33.18
2016-06-23T04:38:03.739Z,33.42
2016-06-23T04:39:04.355Z,33.6
2016-06-23T04:40:03.150Z,33.73
2016-06-23T04:41:03.771Z,33.91
2016-06-23T04:42:03.789Z,34.06
2016-06-23T04:43:03.786Z,34.25
2016-06-23T04:44:03.800Z,34.47
2016-06-23T04:45:04.436Z,34.56
2016-06-23T04:46:03.830Z,34.89
2016-06-23T04:47:03.233Z,35.1
2016-06-23T04:48:04.467Z,35.25
2016-06-23T04:49:04.474Z,35.41
2016-06-23T04:50:03.878Z,35.52
2016-06-23T04:51:03.289Z,35.7
2016-06-23T04:52:03.284Z,35.87
2016-06-23T04:53:03.913Z,36
2016-06-23T04:54:03.325Z,36
2016-06-23T04:55:03.949Z,36.29
2016-06-23T04:56:03.960Z,36.37
2016-06-23T04:57:03.991Z,36.47
2016-06-23T04:58:03.991Z,36.6
2016-06-23T04:59:04.007Z,36.69
2016-06-23T05:00:04.010Z,36.72
2016-06-23T05:01:04.013Z,36.83
2016-06-23T05:02:04.647Z,36.99
2016-06-23T05:03:04.666Z,37.03
2016-06-23T05:04:04.064Z,37
2016-06-23T05:05:03.473Z,37.07
2016-06-23T05:06:04.098Z,37.1
2016-06-23T05:07:04.112Z,37.15
2016-06-23T05:08:04.130Z,37.29
2016-06-23T05:09:04.136Z,37.39
2016-06-23T05:10:04.154Z,37.46
2016-06-23T05:11:03.547Z,37.63
2016-06-23T05:12:03.572Z,37.69
2016-06-23T05:13:04.809Z,37.93
2016-06-23T05:14:04.226Z,38
2016-06-23T05:15:04.246Z,38.16
2016-06-23T05:16:03.747Z,38.32
2016-06-23T05:17:04.268Z,38.42
2016-06-23T05:18:04.285Z,38.44
2016-06-23T05:19:04.298Z,38.52
2016-06-23T05:20:04.929Z,38.57
2016-06-23T05:21:03.718Z,38.75
2016-06-23T05:22:04.358Z,38.75
2016-06-23T05:23:03.750Z,38.76
2016-06-23T05:24:04.995Z,38.84
2016-06-23T05:25:03.795Z,38.87
2016-06-23T05:26:05.282Z,38.79
2016-06-23T05:27:04.429Z,38.83
2016-06-23T05:28:04.441Z,38.75
2016-06-23T05:29:03.853Z,38.83
2016-06-23T05:30:05.071Z,38.84
2016-06-23T05:31:05.102Z,38.93
2016-06-23T05:32:04.526Z,38.96
2016-06-23T05:33:04.543Z,39.11
2016-06-23T05:34:05.176Z,39.16
2016-06-23T05:35:04.571Z,39.16
2016-06-23T05:36:05.182Z,39.23
2016-06-23T05:37:06.084Z,39.38
2016-06-23T05:38:07.348Z,39.4
2016-06-23T05:39:06.436Z,39.51
2016-06-23T05:40:06.443Z,39.67
2016-06-23T05:41:06.428Z,39.66
2016-06-23T05:42:05.496Z,39.72
2016-06-23T05:43:05.311Z,39.72
2016-06-23T05:44:05.326Z,39.75
2016-06-23T05:45:05.343Z,39.79
2016-06-23T05:46:20.178Z,39.89
2016-06-23T05:47:05.643Z,39.98
2016-06-23T05:48:05.562Z,40.1
2016-06-23T05:49:04.912Z,40.07
2016-06-23T05:50:05.335Z,40.08
2016-06-23T05:51:05.613Z,40.06
2016-06-23T05:52:04.325Z,40.2
2016-06-23T05:53:05.138Z,40.16
2016-06-23T05:54:04.912Z,40.29
2016-06-23T05:55:04.309Z,40.27
2016-06-23T05:56:04.941Z,40.27
2016-06-23T05:57:05.570Z,40.31
2016-06-23T05:58:05.576Z,40.31
2016-06-23T05:59:05.618Z,40.26
2016-06-23T06:00:05.025Z,40.23
2016-06-23T06:01:04.418Z,40.29
2016-06-23T06:02:04.437Z,40.32
2016-06-23T06:03:05.673Z,40.25
2016-06-23T06:04:04.462Z,40.22
2016-06-23T06:05:04.492Z,40.25
2016-06-23T06:06:05.123Z,40.32
2016-06-23T06:07:05.131Z,40.31
2016-06-23T06:08:04.556Z,40.27
2016-06-23T06:09:05.179Z,40.41
2016-06-23T06:10:04.577Z,40.46
2016-06-23T06:11:04.598Z,40.54
2016-06-23T06:12:05.842Z,40.51
2016-06-23T06:13:05.854Z,40.53
2016-06-23T06:14:04.664Z,40.61
2016-06-23T06:15:05.320Z,40.6
2016-06-23T06:16:05.403Z,40.5
2016-06-23T06:17:04.723Z,40.64
2016-06-23T06:18:04.741Z,40.72
2016-06-23T06:19:05.371Z,40.72
2016-06-23T06:20:05.382Z,40.72
2016-06-23T06:21:05.408Z,40.65
2016-06-23T06:22:04.813Z,40.8
2016-06-23T06:23:06.061Z,40.83
2016-06-23T06:24:06.066Z,40.87
2016-06-23T06:25:05.492Z,40.83
2016-06-23T06:26:04.910Z,40.96
2016-06-23T06:27:04.921Z,40.99
2016-06-23T06:28:05.535Z,41.08
2016-06-23T06:29:05.560Z,41.02
2016-06-23T06:30:05.576Z,41.07
2016-06-23T06:31:04.994Z,41.08
2016-06-23T06:32:05.622Z,41.13
2016-06-23T06:33:05.640Z,41.13
2016-06-23T06:34:06.263Z,41.1
2016-06-23T06:35:05.672Z,41.17
2016-06-23T06:36:06.296Z,41.16
2016-06-23T06:37:05.113Z,41.08
2016-06-23T06:38:06.364Z,41.13
2016-06-23T06:39:06.369Z,41.21
2016-06-23T06:40:06.394Z,41.13
2016-06-23T06:41:06.396Z,41.1
2016-06-23T06:42:06.428Z,41.08
2016-06-23T06:43:06.452Z,41.04
2016-06-23T06:44:06.461Z,41.06
2016-06-23T06:45:05.887Z,41.1
2016-06-23T06:46:05.900Z,41.08
2016-06-23T06:47:06.513Z,41.11
2016-06-23T06:48:05.329Z,41.13
2016-06-23T06:49:06.607Z,41.17
2016-06-23T06:50:05.363Z,41.1
2016-06-23T06:51:05.993Z,41.16
2016-06-23T06:52:05.405Z,41.16
2016-06-23T06:53:05.430Z,41.21
2016-06-23T06:54:05.442Z,41.33
2016-06-23T06:57:06.671Z,41.39
2016-06-23T06:58:06.631Z,41.41
2016-06-23T06:59:07.142Z,41.42
2016-06-23T07:00:06.729Z,41.37
2016-06-23T07:01:07.577Z,41.41
2016-06-23T07:02:06.653Z,41.45
2016-06-23T07:03:05.627Z,41.44
2016-06-23T07:04:06.274Z,41.35
2016-06-23T07:05:07.022Z,41.33
2016-06-23T07:06:07.799Z,41.3
2016-06-23T07:07:06.721Z,41.3
2016-06-23T07:08:07.610Z,41.3
2016-06-23T07:09:06.994Z,41.25
2016-06-23T07:10:07.101Z,41.11
2016-06-23T07:11:06.211Z,41.1
2016-06-23T07:12:06.422Z,41.01
2016-06-23T07:13:05.829Z,40.95
2016-06-23T07:14:06.474Z,40.7
2016-06-23T07:15:07.116Z,40.65
2016-06-23T07:16:07.234Z,40.6
2016-06-23T07:17:06.542Z,40.51
2016-06-23T07:18:05.945Z,40.46
2016-06-23T07:19:05.975Z,40.48
2016-06-23T07:20:06.609Z,40.43
2016-06-23T07:21:06.639Z,40.19
2016-06-23T07:22:06.639Z,40.18
2016-06-23T07:23:06.047Z,40
2016-06-23T07:24:07.276Z,39.77
2016-06-23T07:25:07.309Z,39.54
2016-06-23T07:26:06.707Z,39.36
2016-06-23T07:27:06.135Z,39.36
2016-06-23T07:28:06.155Z,39.26
2016-06-23T07:29:06.763Z,39.28
2016-06-23T07:30:06.802Z,39.3
2016-06-23T07:31:07.419Z,39.23
2016-06-23T07:32:06.836Z,39.28
2016-06-23T07:33:06.846Z,39.16
2016-06-23T07:34:06.881Z,38.93
2016-06-23T07:35:06.905Z,38.95
2016-06-23T07:36:07.527Z,38.91
2016-06-23T07:37:06.943Z,38.99
2016-06-23T07:38:07.580Z,38.98
2016-06-23T07:39:06.970Z,39.06
2016-06-23T07:40:07.013Z,39.11
2016-06-23T07:41:07.024Z,39.07
2016-06-23T07:42:07.045Z,38.99
2016-06-23T07:43:07.078Z,39.06
2016-06-23T07:44:07.103Z,39.14
2016-06-23T07:45:07.727Z,39.16
2016-06-23T07:46:07.125Z,39.1
2016-06-23T07:47:07.149Z,39.1
2016-06-23T07:48:07.154Z,38.81
2016-06-23T07:49:07.825Z,38.69
2016-06-23T07:50:07.215Z,38.52
2016-06-23T07:51:07.824Z,38.28
2016-06-23T07:52:06.691Z,37.96
2016-06-23T07:53:07.281Z,37.59
2016-06-23T07:54:06.669Z,37.47
2016-06-23T07:55:07.310Z,37.49
2016-06-23T07:56:07.328Z,37.44
2016-06-23T07:57:07.446Z,37.55
2016-06-23T07:58:07.367Z,37.51
2016-06-23T07:59:07.374Z,37.39
2016-06-23T08:00:08.015Z,37.34
2016-06-23T08:01:07.417Z,37.39
2016-06-23T08:02:06.822Z,37.46
2016-06-23T08:03:07.466Z,37.57
2016-06-23T08:04:06.866Z,37.55
2016-06-23T08:05:07.492Z,37.49
2016-06-23T08:06:07.526Z,37.49
2016-06-23T08:07:07.540Z,37.66
2016-06-23T08:08:06.956Z,37.7
2016-06-23T08:09:06.957Z,37.7
2016-06-23T08:10:06.990Z,37.57
2016-06-23T08:11:07.607Z,37.62
2016-06-23T08:12:07.638Z,37.5
2016-06-23T08:13:07.654Z,37.43
2016-06-23T08:16:09.145Z,37.21
2016-06-23T08:17:09.312Z,37.06
2016-06-23T08:18:07.152Z,37.09
2016-06-23T08:19:08.327Z,37.02
2016-06-23T08:20:07.794Z,37.02
2016-06-23T08:21:07.879Z,37.09
2016-06-23T08:22:07.243Z,37.22
2016-06-23T08:23:08.487Z,37.27
2016-06-23T08:24:09.021Z,37.31
2016-06-23T08:25:07.683Z,37.29
2016-06-23T08:26:09.400Z,37.34
2016-06-23T08:27:22.196Z,37.49
2016-06-23T08:28:09.075Z,37.43
2016-06-23T08:29:07.599Z,37.46
2016-06-23T08:30:08.663Z,37.36
2016-06-23T08:31:08.001Z,37.31
2016-06-23T08:32:08.648Z,37.15
2016-06-23T08:33:08.650Z,37.22
2016-06-23T08:34:08.050Z,37.18
2016-06-23T08:35:08.072Z,37.12
2016-06-23T08:36:08.704Z,37.09
2016-06-23T08:37:07.507Z,37.1
2016-06-23T08:38:08.759Z,36.94
2016-06-23T08:39:07.548Z,36.84
2016-06-23T08:40:08.195Z,36.76
2016-06-23T08:41:08.193Z,36.66
2016-06-23T08:42:08.214Z,36.57
2016-06-23T08:43:07.615Z,36.34
2016-06-23T08:44:08.257Z,36.38
2016-06-23T08:45:08.122Z,36.49
2016-06-23T08:46:08.913Z,36.32
2016-06-23T08:47:08.930Z,36.51
2016-06-23T08:48:07.721Z,36.38
2016-06-23T08:49:08.371Z,36.29
2016-06-23T08:50:08.994Z,36.12
2016-06-23T08:51:08.391Z,35.92
2016-06-23T08:52:08.410Z,35.94
2016-06-23T08:53:07.810Z,35.93
2016-06-23T08:54:08.458Z,35.97
2016-06-23T08:55:08.474Z,36.03
2016-06-23T08:56:08.506Z,36.01
2016-06-23T08:57:08.519Z,36.01
2016-06-23T08:58:08.555Z,35.92
2016-06-23T08:59:08.546Z,35.78
2016-06-23T09:00:08.629Z,35.56
2016-06-23T09:01:08.595Z,35.5
2016-06-23T09:02:09.201Z,35.34
2016-06-23T09:03:09.233Z,35.14
2016-06-23T09:04:09.254Z,34.8
2016-06-23T09:05:08.659Z,34.54
2016-06-23T09:06:09.282Z,34.19
2016-06-23T09:07:09.311Z,34
2016-06-23T09:08:08.091Z,33.95
2016-06-23T09:09:08.731Z,33.78
2016-06-23T09:10:09.366Z,33.57
2016-06-23T09:11:09.368Z,33.39
2016-06-23T09:12:09.388Z,33.18
2016-06-23T09:13:09.403Z,32.99
2016-06-23T09:14:08.809Z,32.88
2016-06-23T09:15:09.424Z,32.78
2016-06-23T09:16:09.526Z,32.75
2016-06-23T09:17:08.217Z,32.65
2016-06-23T09:18:08.233Z,32.55
2016-06-23T09:19:08.865Z,32.25
2016-06-23T09:20:08.874Z,32.23
2016-06-23T09:21:08.894Z,32.08
2016-06-23T09:22:08.907Z,32.01
2016-06-23T09:23:08.923Z,31.96
2016-06-23T09:24:09.556Z,31.91
2016-06-23T09:25:09.558Z,31.7
2016-06-23T09:26:08.950Z,31.68
2016-06-23T09:27:08.970Z,31.5
2016-06-23T09:28:08.361Z,31.38
2016-06-23T09:29:09.005Z,31.25
2016-06-23T09:30:09.010Z,31.21
2016-06-23T09:31:09.055Z,31.2
2016-06-23T09:32:10.082Z,31.16
2016-06-23T09:33:23.935Z,31.16
2016-06-23T09:34:10.523Z,31.1
2016-06-23T09:35:10.833Z,30.99
2016-06-23T09:36:09.833Z,30.99
2016-06-23T09:37:09.532Z,30.92
2016-06-23T09:38:09.805Z,30.94
2016-06-23T09:39:10.034Z,30.86
2016-06-23T09:40:09.731Z,30.7
2016-06-23T09:41:23.382Z,30.64
2016-06-23T09:42:11.738Z,30.76
2016-06-23T09:43:09.607Z,30.72
2016-06-23T09:44:09.726Z,30.58
2016-06-23T09:45:08.995Z,30.6
2016-06-23T09:46:10.042Z,30.73
2016-06-23T09:47:10.654Z,30.69
2016-06-23T09:48:08.570Z,30.58
2016-06-23T09:49:09.905Z,30.64
2016-06-23T09:50:09.800Z,30.62
2016-06-23T09:51:09.206Z,30.55
2016-06-23T09:52:09.829Z,30.65
2016-06-23T09:53:08.618Z,30.62
2016-06-23T09:54:09.857Z,30.62
2016-06-23T09:55:09.854Z,30.58
2016-06-23T09:56:09.859Z,30.62
2016-06-23T09:57:08.663Z,30.58
2016-06-23T09:58:09.273Z,30.62
2016-06-23T09:59:09.283Z,30.58
2016-06-23T10:00:08.680Z,30.58
2016-06-23T10:01:09.907Z,30.49
2016-06-23T10:02:09.331Z,30.57
2016-06-23T10:03:09.955Z,30.49
2016-06-23T10:04:09.935Z,30.54
2016-06-23T10:05:09.344Z,30.53
2016-06-23T10:06:09.354Z,30.49
2016-06-23T10:07:08.748Z,30.45
2016-06-23T10:08:09.802Z,30.45
2016-06-23T10:09:09.984Z,30.57
2016-06-23T10:10:08.783Z,30.51
2016-06-23T10:11:09.402Z,30.49
2016-06-23T10:12:10.017Z,30.49
2016-06-23T10:13:09.422Z,30.54
2016-06-23T10:14:09.411Z,30.55
2016-06-23T10:15:09.441Z,30.53
2016-06-23T10:16:10.143Z,30.53
2016-06-23T10:17:10.057Z,30.61
2016-06-23T10:18:08.879Z,30.62
2016-06-23T10:19:08.845Z,30.62
2016-06-23T10:20:10.092Z,30.76
2016-06-23T10:21:10.091Z,30.75
2016-06-23T10:22:09.514Z,30.73
2016-06-23T10:23:10.114Z,30.76
2016-06-23T10:24:10.118Z,30.69
2016-06-23T10:25:10.152Z,30.72
2016-06-23T10:26:10.183Z,30.62
2016-06-23T10:27:10.146Z,30.64
2016-06-23T10:28:10.154Z,30.67
2016-06-23T10:29:09.584Z,30.58
2016-06-23T10:30:08.951Z,30.62
2016-06-23T10:31:10.184Z,30.64
2016-06-23T10:32:10.178Z,30.53
2016-06-23T10:33:09.593Z,30.57
2016-06-23T10:34:09.621Z,30.64
2016-06-23T10:35:10.218Z,30.64
2016-06-23T10:36:09.626Z,30.6
2016-06-23T10:37:09.619Z,30.62
2016-06-23T10:38:10.259Z,30.72
2016-06-23T10:39:09.669Z,30.76
2016-06-23T10:40:10.268Z,30.7
2016-06-23T10:41:10.282Z,30.7
2016-06-23T10:42:10.282Z,30.72
2016-06-23T10:43:09.671Z,30.72
2016-06-23T10:44:10.307Z,30.84
2016-06-23T10:45:09.708Z,30.7
2016-06-23T10:46:09.087Z,30.75
2016-06-23T10:47:09.706Z,30.83
2016-06-23T10:48:10.329Z,30.82
2016-06-23T10:49:09.135Z,30.89
2016-06-23T10:50:09.823Z,30.86
2016-06-23T10:51:14.470Z,30.86
2016-06-23T10:53:12.415Z,30.86
2016-06-23T10:54:09.782Z,30.86
2016-06-23T10:55:11.650Z,30.86
2016-06-23T10:56:09.495Z,30.95
2016-06-23T10:57:09.598Z,30.92
2016-06-23T10:58:10.503Z,30.94
2016-06-23T10:59:10.431Z,30.92
2016-06-23T11:00:11.638Z,31.01
2016-06-23T11:01:11.708Z,30.98
2016-06-23T11:02:10.639Z,30.99
2016-06-23T11:03:11.507Z,30.99
2016-06-23T11:04:09.891Z,31.02
2016-06-23T11:05:10.519Z,31.04
2016-06-23T11:06:09.884Z,31.02
2016-06-23T11:07:09.894Z,31.09
2016-06-23T11:08:10.504Z,31.02
2016-06-23T11:09:09.904Z,31.1
2016-06-23T11:10:09.919Z,31.06
2016-06-23T11:11:10.531Z,31.06
2016-06-23T11:12:09.330Z,31.04
2016-06-23T11:13:09.943Z,31.12
2016-06-23T11:14:10.562Z,31.14
2016-06-23T11:15:10.564Z,31.09
2016-06-23T11:16:09.959Z,31.06
2016-06-23T11:17:10.590Z,31.02
2016-06-23T11:18:09.382Z,31.14
2016-06-23T11:19:10.005Z,31.06
2016-06-23T11:20:09.399Z,31.12
2016-06-23T11:21:10.034Z,31.06
2016-06-23T11:22:10.627Z,31.09
2016-06-23T11:23:10.044Z,31.02
2016-06-23T11:24:10.046Z,31.02
2016-06-23T11:25:10.058Z,31.12
2016-06-23T11:26:09.447Z,31.04
2016-06-23T11:27:10.674Z,31.09
2016-06-23T11:28:10.696Z,31.04
2016-06-23T11:29:10.101Z,31.1
2016-06-23T11:30:10.094Z,31.1
2016-06-23T11:31:10.715Z,31.04
2016-06-23T11:32:10.109Z,31.07
2016-06-23T11:33:10.728Z,31.14
2016-06-23T11:34:10.124Z,31.2
2016-06-23T11:35:10.173Z,31.2
2016-06-23T11:36:10.767Z,31.16
2016-06-23T11:37:10.772Z,31.16
2016-06-23T11:38:10.173Z,31.19
2016-06-23T11:39:09.574Z,31.17
2016-06-23T11:40:09.574Z,31.19
2016-06-23T11:41:10.193Z,31.17
2016-06-23T11:42:10.200Z,31.16
2016-06-23T11:43:10.222Z,31.21
2016-06-23T11:44:10.836Z,31.17
2016-06-23T11:45:10.316Z,31.23
2016-06-23T11:46:10.233Z,31.2
2016-06-23T11:47:10.254Z,31.28
2016-06-23T11:48:10.243Z,31.28
2016-06-23T11:49:10.877Z,31.31
2016-06-23T11:50:09.667Z,31.32
2016-06-23T11:51:10.278Z,31.28
2016-06-23T11:52:10.290Z,31.29
2016-06-23T11:53:09.698Z,31.34
2016-06-23T11:54:10.925Z,31.26
2016-06-23T11:55:09.719Z,31.41
2016-06-23T11:56:10.935Z,31.35
2016-06-23T11:57:10.357Z,31.36
2016-06-23T11:58:10.943Z,31.46
2016-06-23T11:59:10.960Z,31.48
2016-06-23T12:00:10.989Z,31.38
2016-06-23T12:01:10.374Z,31.41
2016-06-23T12:02:10.384Z,31.46
2016-06-23T12:03:09.769Z,31.36
2016-06-23T12:04:11.013Z,31.44
2016-06-23T12:05:10.403Z,31.36
2016-06-23T12:06:11.107Z,31.39
2016-06-23T12:07:09.818Z,31.36
2016-06-23T12:08:10.434Z,31.44
2016-06-23T12:10:11.565Z,31.41
2016-06-23T12:11:11.401Z,31.44
2016-06-23T12:12:25.342Z,31.43
2016-06-23T12:13:11.298Z,31.41
2016-06-23T12:14:11.959Z,31.44
2016-06-23T12:15:10.482Z,31.39
2016-06-23T12:16:10.612Z,31.43
2016-06-23T12:17:11.120Z,31.38
2016-06-23T12:18:11.116Z,31.46
2016-06-23T12:19:12.476Z,31.46
2016-06-23T12:20:10.526Z,31.47
2016-06-23T12:21:12.491Z,31.38
2016-06-23T12:22:11.422Z,31.32
2016-06-23T12:23:11.990Z,31.44
2016-06-23T12:24:11.190Z,31.46
2016-06-23T12:25:09.977Z,31.46
2016-06-23T12:26:10.090Z,31.39
2016-06-23T12:27:11.211Z,31.43
2016-06-23T12:28:10.609Z,31.5
2016-06-23T12:29:10.025Z,31.51
2016-06-23T12:30:11.238Z,31.54
2016-06-23T12:31:11.249Z,31.54
2016-06-23T12:32:11.258Z,31.58
2016-06-23T12:33:10.652Z,31.54
2016-06-23T12:34:10.671Z,31.54
2016-06-23T12:35:10.070Z,31.48
2016-06-23T12:36:10.084Z,31.62
2016-06-23T12:37:10.707Z,31.58
2016-06-23T12:38:10.735Z,31.62
2016-06-23T12:39:11.327Z,31.65
2016-06-23T12:40:10.109Z,31.7
2016-06-23T12:41:10.731Z,31.72
2016-06-23T12:42:11.358Z,31.7
2016-06-23T12:43:11.360Z,31.69
2016-06-23T12:44:10.760Z,31.76
2016-06-23T12:45:11.370Z,31.72
2016-06-23T12:46:10.796Z,31.7
2016-06-23T12:47:11.403Z,31.72
2016-06-23T12:48:10.287Z,31.7
2016-06-23T12:49:10.802Z,31.7
2016-06-23T12:50:10.820Z,31.8
2016-06-23T12:51:10.816Z,31.76
2016-06-23T12:52:10.226Z,31.7
2016-06-23T12:53:11.440Z,31.81
2016-06-23T12:54:10.237Z,31.76
2016-06-23T12:55:10.852Z,31.76
2016-06-23T12:56:10.859Z,31.8
2016-06-23T12:57:10.273Z,31.7
2016-06-23T12:58:11.489Z,31.8
2016-06-23T12:59:10.279Z,31.73
2016-06-23T13:00:10.910Z,31.76
2016-06-23T13:01:10.923Z,31.7
2016-06-23T13:02:10.304Z,31.75
2016-06-23T13:03:10.941Z,31.69